sensor_id;sensor_type;location;lat;lon;timestamp;P1;durP1;ratioP1;P2;durP2;ratioP2
18997;SDS011;9632;51.018;4.284;2023-02-14T00:02:15;21.25;;;10.38;;
18997;SDS011;9632;51.018;4.284;2023-02-14T00:04:41;22.40;;;10.38;;
18997;SDS011;9632;51.018;4.284;2023-02-14T00:07:09;20.10;;;9.45;;
18997;SDS011;9632;51.018;4.284;2023-02-14T00:09:35;22.10;;;10.25;;
18997;SDS011;9632;51.018;4.284;2023-02-14T00:12:01;18.17;;;9.85;;
18997;SDS011;9632;51.018;4.284;2023-02-14T00:14:27;18.55;;;9.68;;
18997;SDS011;9632;51.018;4.284;2023-02-14T00:17:11;21.98;;;10.60;;
18997;SDS011;9632;51.018;4.284;2023-02-14T00:19:36;18.25;;;10.25;;
18997;SDS011;9632;51.018;4.284;2023-02-14T00:22:02;18.92;;;9.73;;
18997;SDS011;9632;51.018;4.284;2023-02-14T00:24:28;19.60;;;9.63;;
18997;SDS011;9632;51.018;4.284;2023-02-14T00:26:54;18.65;;;9.63;;
18997;SDS011;9632;51.018;4.284;2023-02-14T00:29:21;17.05;;;9.45;;
18997;SDS011;9632;51.018;4.284;2023-02-14T00:31:49;17.80;;;9.60;;
18997;SDS011;9632;51.018;4.284;2023-02-14T00:34:15;18.67;;;10.43;;
18997;SDS011;9632;51.018;4.284;2023-02-14T00:36:41;22.60;;;10.30;;
18997;SDS011;9632;51.018;4.284;2023-02-14T00:39:08;17.83;;;9.63;;
18997;SDS011;9632;51.018;4.284;2023-02-14T00:41:36;19.95;;;10.07;;
18997;SDS011;9632;51.018;4.284;2023-02-14T00:44:03;18.45;;;10.10;;
18997;SDS011;9632;51.018;4.284;2023-02-14T00:46:29;19.77;;;10.38;;
18997;SDS011;9632;51.018;4.284;2023-02-14T00:48:55;20.15;;;10.27;;
18997;SDS011;9632;51.018;4.284;2023-02-14T00:51:21;21.00;;;10.48;;
18997;SDS011;9632;51.018;4.284;2023-02-14T00:53:47;18.13;;;9.63;;
18997;SDS011;9632;51.018;4.284;2023-02-14T00:56:14;19.35;;;9.65;;
18997;SDS011;9632;51.018;4.284;2023-02-14T00:58:40;18.85;;;9.88;;
18997;SDS011;9632;51.018;4.284;2023-02-14T01:01:06;18.42;;;10.15;;
18997;SDS011;9632;51.018;4.284;2023-02-14T01:03:34;19.38;;;10.32;;
18997;SDS011;9632;51.018;4.284;2023-02-14T01:06:00;21.73;;;10.95;;
18997;SDS011;9632;51.018;4.284;2023-02-14T01:08:26;20.67;;;11.45;;
18997;SDS011;9632;51.018;4.284;2023-02-14T01:10:52;23.75;;;11.50;;
18997;SDS011;9632;51.018;4.284;2023-02-14T01:16:39;22.73;;;11.50;;
18997;SDS011;9632;51.018;4.284;2023-02-14T01:19:05;22.52;;;11.65;;
18997;SDS011;9632;51.018;4.284;2023-02-14T01:21:33;21.93;;;11.00;;
18997;SDS011;9632;51.018;4.284;2023-02-14T01:24:00;22.40;;;10.70;;
18997;SDS011;9632;51.018;4.284;2023-02-14T01:26:27;19.98;;;10.82;;
18997;SDS011;9632;51.018;4.284;2023-02-14T01:28:54;19.47;;;10.53;;
18997;SDS011;9632;51.018;4.284;2023-02-14T01:31:21;17.80;;;9.93;;
18997;SDS011;9632;51.018;4.284;2023-02-14T01:33:52;20.00;;;10.20;;
18997;SDS011;9632;51.018;4.284;2023-02-14T01:36:19;17.00;;;8.88;;
18997;SDS011;9632;51.018;4.284;2023-02-14T01:38:49;16.87;;;9.13;;
18997;SDS011;9632;51.018;4.284;2023-02-14T01:41:17;15.17;;;8.33;;
18997;SDS011;9632;51.018;4.284;2023-02-14T01:46:20;16.30;;;8.73;;
18997;SDS011;9632;51.018;4.284;2023-02-14T01:48:46;18.50;;;8.70;;
18997;SDS011;9632;51.018;4.284;2023-02-14T01:51:13;17.60;;;8.35;;
18997;SDS011;9632;51.018;4.284;2023-02-14T01:53:40;18.60;;;8.40;;
18997;SDS011;9632;51.018;4.284;2023-02-14T01:56:07;17.07;;;8.87;;
18997;SDS011;9632;51.018;4.284;2023-02-14T01:58:37;16.30;;;8.90;;
18997;SDS011;9632;51.018;4.284;2023-02-14T02:01:09;19.70;;;9.23;;
18997;SDS011;9632;51.018;4.284;2023-02-14T02:03:41;15.37;;;9.00;;
18997;SDS011;9632;51.018;4.284;2023-02-14T02:06:18;22.07;;;9.50;;
18997;SDS011;9632;51.018;4.284;2023-02-14T02:09:31;18.17;;;9.53;;
18997;SDS011;9632;51.018;4.284;2023-02-14T02:11:58;17.33;;;9.20;;
18997;SDS011;9632;51.018;4.284;2023-02-14T02:14:25;19.20;;;9.87;;
18997;SDS011;9632;51.018;4.284;2023-02-14T02:30:18;21.10;;;11.05;;
18997;SDS011;9632;51.018;4.284;2023-02-14T02:36:03;18.90;;;10.52;;
18997;SDS011;9632;51.018;4.284;2023-02-14T02:41:14;20.37;;;10.50;;
18997;SDS011;9632;51.018;4.284;2023-02-14T02:47:13;20.40;;;10.13;;
18997;SDS011;9632;51.018;4.284;2023-02-14T02:50:03;21.23;;;10.60;;
18997;SDS011;9632;51.018;4.284;2023-02-14T03:01:27;19.70;;;9.67;;
18997;SDS011;9632;51.018;4.284;2023-02-14T03:03:58;19.60;;;9.90;;
18997;SDS011;9632;51.018;4.284;2023-02-14T03:06:45;16.70;;;9.43;;
18997;SDS011;9632;51.018;4.284;2023-02-14T03:09:47;17.83;;;9.23;;
18997;SDS011;9632;51.018;4.284;2023-02-14T03:12:11;19.10;;;9.03;;
18997;SDS011;9632;51.018;4.284;2023-02-14T03:17:35;17.50;;;9.10;;
18997;SDS011;9632;51.018;4.284;2023-02-14T03:20:22;20.77;;;10.00;;
18997;SDS011;9632;51.018;4.284;2023-02-14T03:25:53;17.90;;;9.03;;
18997;SDS011;9632;51.018;4.284;2023-02-14T03:28:58;18.10;;;9.40;;
18997;SDS011;9632;51.018;4.284;2023-02-14T03:31:37;19.30;;;9.00;;
18997;SDS011;9632;51.018;4.284;2023-02-14T03:36:49;20.27;;;9.83;;
18997;SDS011;9632;51.018;4.284;2023-02-14T03:44:48;18.50;;;9.87;;
18997;SDS011;9632;51.018;4.284;2023-02-14T03:47:16;19.30;;;10.07;;
18997;SDS011;9632;51.018;4.284;2023-02-14T03:49:56;20.37;;;10.17;;
18997;SDS011;9632;51.018;4.284;2023-02-14T03:52:26;21.57;;;10.50;;
18997;SDS011;9632;51.018;4.284;2023-02-14T03:54:54;22.97;;;10.13;;
18997;SDS011;9632;51.018;4.284;2023-02-14T03:59:54;21.67;;;10.43;;
18997;SDS011;9632;51.018;4.284;2023-02-14T04:02:25;19.83;;;9.77;;
18997;SDS011;9632;51.018;4.284;2023-02-14T04:05:00;21.23;;;10.60;;
18997;SDS011;9632;51.018;4.284;2023-02-14T04:07:29;21.63;;;10.90;;
18997;SDS011;9632;51.018;4.284;2023-02-14T04:09:55;23.33;;;11.00;;
18997;SDS011;9632;51.018;4.284;2023-02-14T04:12:20;21.20;;;10.63;;
18997;SDS011;9632;51.018;4.284;2023-02-14T04:14:49;20.70;;;9.87;;
18997;SDS011;9632;51.018;4.284;2023-02-14T04:17:14;22.27;;;10.83;;
18997;SDS011;9632;51.018;4.284;2023-02-14T04:19:58;22.73;;;10.93;;
18997;SDS011;9632;51.018;4.284;2023-02-14T04:22:24;20.47;;;10.53;;
18997;SDS011;9632;51.018;4.284;2023-02-14T04:24:50;18.50;;;10.20;;
18997;SDS011;9632;51.018;4.284;2023-02-14T04:27:15;21.20;;;10.23;;
18997;SDS011;9632;51.018;4.284;2023-02-14T04:29:45;21.53;;;10.27;;
18997;SDS011;9632;51.018;4.284;2023-02-14T04:32:12;21.83;;;10.30;;
18997;SDS011;9632;51.018;4.284;2023-02-14T04:34:43;22.83;;;11.17;;
18997;SDS011;9632;51.018;4.284;2023-02-14T04:37:09;19.93;;;10.20;;
18997;SDS011;9632;51.018;4.284;2023-02-14T04:39:35;22.20;;;11.10;;
18997;SDS011;9632;51.018;4.284;2023-02-14T04:42:03;22.90;;;11.20;;
18997;SDS011;9632;51.018;4.284;2023-02-14T04:44:29;21.20;;;10.30;;
18997;SDS011;9632;51.018;4.284;2023-02-14T04:46:55;21.20;;;11.40;;
18997;SDS011;9632;51.018;4.284;2023-02-14T04:49:21;22.77;;;10.93;;
18997;SDS011;9632;51.018;4.284;2023-02-14T04:51:46;25.03;;;11.47;;
18997;SDS011;9632;51.018;4.284;2023-02-14T04:54:12;24.88;;;11.98;;
18997;SDS011;9632;51.018;4.284;2023-02-14T04:56:38;25.60;;;12.10;;
18997;SDS011;9632;51.018;4.284;2023-02-14T04:59:04;24.27;;;11.80;;
18997;SDS011;9632;51.018;4.284;2023-02-14T05:01:29;21.50;;;11.20;;
18997;SDS011;9632;51.018;4.284;2023-02-14T05:03:55;23.67;;;11.10;;
18997;SDS011;9632;51.018;4.284;2023-02-14T05:06:21;23.70;;;11.40;;
18997;SDS011;9632;51.018;4.284;2023-02-14T05:08:47;25.70;;;12.23;;
18997;SDS011;9632;51.018;4.284;2023-02-14T05:11:13;25.27;;;12.20;;
18997;SDS011;9632;51.018;4.284;2023-02-14T05:13:38;24.67;;;11.73;;
18997;SDS011;9632;51.018;4.284;2023-02-14T05:16:04;27.60;;;12.40;;
18997;SDS011;9632;51.018;4.284;2023-02-14T05:18:30;23.23;;;11.97;;
18997;SDS011;9632;51.018;4.284;2023-02-14T05:20:56;27.17;;;12.40;;
18997;SDS011;9632;51.018;4.284;2023-02-14T05:23:21;25.57;;;11.90;;
18997;SDS011;9632;51.018;4.284;2023-02-14T05:25:47;26.03;;;12.37;;
18997;SDS011;9632;51.018;4.284;2023-02-14T05:28:14;29.80;;;13.00;;
18997;SDS011;9632;51.018;4.284;2023-02-14T05:30:40;28.57;;;13.27;;
18997;SDS011;9632;51.018;4.284;2023-02-14T05:33:06;29.87;;;13.97;;
18997;SDS011;9632;51.018;4.284;2023-02-14T05:35:31;32.93;;;14.83;;
18997;SDS011;9632;51.018;4.284;2023-02-14T05:37:57;34.60;;;14.33;;
18997;SDS011;9632;51.018;4.284;2023-02-14T05:40:23;31.40;;;14.47;;
18997;SDS011;9632;51.018;4.284;2023-02-14T05:42:50;35.97;;;14.93;;
18997;SDS011;9632;51.018;4.284;2023-02-14T05:45:16;32.53;;;14.90;;
18997;SDS011;9632;51.018;4.284;2023-02-14T05:47:42;36.17;;;15.30;;
18997;SDS011;9632;51.018;4.284;2023-02-14T05:50:08;33.13;;;14.70;;
18997;SDS011;9632;51.018;4.284;2023-02-14T05:52:34;34.43;;;14.70;;
18997;SDS011;9632;51.018;4.284;2023-02-14T05:55:00;34.43;;;15.37;;
18997;SDS011;9632;51.018;4.284;2023-02-14T05:57:25;33.40;;;15.03;;
18997;SDS011;9632;51.018;4.284;2023-02-14T05:59:51;34.83;;;15.60;;
18997;SDS011;9632;51.018;4.284;2023-02-14T06:02:17;33.13;;;15.60;;
18997;SDS011;9632;51.018;4.284;2023-02-14T06:04:42;35.60;;;15.00;;
18997;SDS011;9632;51.018;4.284;2023-02-14T06:07:08;39.63;;;15.67;;
18997;SDS011;9632;51.018;4.284;2023-02-14T06:09:34;37.37;;;15.43;;
18997;SDS011;9632;51.018;4.284;2023-02-14T06:11:59;35.67;;;15.40;;
18997;SDS011;9632;51.018;4.284;2023-02-14T06:14:25;33.97;;;15.70;;
18997;SDS011;9632;51.018;4.284;2023-02-14T06:16:50;36.73;;;17.37;;
18997;SDS011;9632;51.018;4.284;2023-02-14T06:19:16;39.57;;;17.40;;
18997;SDS011;9632;51.018;4.284;2023-02-14T06:21:42;38.50;;;18.17;;
18997;SDS011;9632;51.018;4.284;2023-02-14T06:24:07;34.57;;;17.10;;
18997;SDS011;9632;51.018;4.284;2023-02-14T06:26:33;37.03;;;16.93;;
18997;SDS011;9632;51.018;4.284;2023-02-14T06:29:00;36.97;;;17.10;;
18997;SDS011;9632;51.018;4.284;2023-02-14T06:31:26;35.73;;;17.57;;
18997;SDS011;9632;51.018;4.284;2023-02-14T06:33:52;36.13;;;16.73;;
18997;SDS011;9632;51.018;4.284;2023-02-14T06:36:18;35.57;;;16.47;;
18997;SDS011;9632;51.018;4.284;2023-02-14T06:38:44;42.50;;;18.10;;
18997;SDS011;9632;51.018;4.284;2023-02-14T06:41:12;38.27;;;17.60;;
18997;SDS011;9632;51.018;4.284;2023-02-14T06:43:39;37.43;;;17.57;;
18997;SDS011;9632;51.018;4.284;2023-02-14T06:46:05;36.30;;;17.80;;
18997;SDS011;9632;51.018;4.284;2023-02-14T06:48:30;42.43;;;18.77;;
18997;SDS011;9632;51.018;4.284;2023-02-14T06:50:56;41.23;;;18.97;;
18997;SDS011;9632;51.018;4.284;2023-02-14T06:53:22;35.50;;;17.77;;
18997;SDS011;9632;51.018;4.284;2023-02-14T06:55:48;38.60;;;17.97;;
18997;SDS011;9632;51.018;4.284;2023-02-14T06:58:13;41.23;;;18.30;;
18997;SDS011;9632;51.018;4.284;2023-02-14T07:00:39;41.03;;;18.20;;
18997;SDS011;9632;51.018;4.284;2023-02-14T07:03:05;36.20;;;17.80;;
18997;SDS011;9632;51.018;4.284;2023-02-14T07:05:32;45.10;;;18.53;;
18997;SDS011;9632;51.018;4.284;2023-02-14T07:07:58;34.93;;;16.93;;
18997;SDS011;9632;51.018;4.284;2023-02-14T07:10:24;39.07;;;17.57;;
18997;SDS011;9632;51.018;4.284;2023-02-14T07:12:50;41.87;;;18.13;;
18997;SDS011;9632;51.018;4.284;2023-02-14T07:15:15;34.37;;;16.57;;
18997;SDS011;9632;51.018;4.284;2023-02-14T07:17:41;34.95;;;16.77;;
18997;SDS011;9632;51.018;4.284;2023-02-14T07:20:07;35.80;;;17.08;;
18997;SDS011;9632;51.018;4.284;2023-02-14T07:22:34;36.20;;;17.27;;
18997;SDS011;9632;51.018;4.284;2023-02-14T07:25:00;36.57;;;17.47;;
18997;SDS011;9632;51.018;4.284;2023-02-14T07:27:26;34.90;;;16.73;;
18997;SDS011;9632;51.018;4.284;2023-02-14T07:29:52;36.33;;;17.23;;
18997;SDS011;9632;51.018;4.284;2023-02-14T07:32:17;36.33;;;16.50;;
18997;SDS011;9632;51.018;4.284;2023-02-14T07:34:43;40.47;;;17.77;;
18997;SDS011;9632;51.018;4.284;2023-02-14T07:37:08;43.30;;;17.70;;
18997;SDS011;9632;51.018;4.284;2023-02-14T07:39:35;40.07;;;16.70;;
18997;SDS011;9632;51.018;4.284;2023-02-14T07:42:01;38.67;;;18.07;;
18997;SDS011;9632;51.018;4.284;2023-02-14T07:44:26;38.17;;;17.63;;
18997;SDS011;9632;51.018;4.284;2023-02-14T07:46:52;40.57;;;17.57;;
18997;SDS011;9632;51.018;4.284;2023-02-14T07:49:17;39.70;;;17.37;;
18997;SDS011;9632;51.018;4.284;2023-02-14T07:51:43;38.57;;;17.80;;
18997;SDS011;9632;51.018;4.284;2023-02-14T07:54:09;38.60;;;17.87;;
18997;SDS011;9632;51.018;4.284;2023-02-14T07:56:34;36.53;;;17.43;;
18997;SDS011;9632;51.018;4.284;2023-02-14T07:59:00;40.27;;;18.07;;
18997;SDS011;9632;51.018;4.284;2023-02-14T08:01:25;42.10;;;18.70;;
18997;SDS011;9632;51.018;4.284;2023-02-14T08:03:51;43.50;;;18.13;;
18997;SDS011;9632;51.018;4.284;2023-02-14T08:06:17;39.93;;;18.43;;
18997;SDS011;9632;51.018;4.284;2023-02-14T08:08:43;40.60;;;18.30;;
18997;SDS011;9632;51.018;4.284;2023-02-14T08:11:10;39.30;;;19.07;;
18997;SDS011;9632;51.018;4.284;2023-02-14T08:13:36;48.93;;;20.57;;
18997;SDS011;9632;51.018;4.284;2023-02-14T08:16:02;43.43;;;18.00;;
18997;SDS011;9632;51.018;4.284;2023-02-14T08:18:28;39.60;;;18.67;;
18997;SDS011;9632;51.018;4.284;2023-02-14T08:20:54;41.73;;;19.43;;
18997;SDS011;9632;51.018;4.284;2023-02-14T08:23:20;46.30;;;19.27;;
18997;SDS011;9632;51.018;4.284;2023-02-14T08:25:47;40.40;;;19.20;;
18997;SDS011;9632;51.018;4.284;2023-02-14T08:28:14;45.43;;;19.60;;
18997;SDS011;9632;51.018;4.284;2023-02-14T08:30:40;47.63;;;20.77;;
18997;SDS011;9632;51.018;4.284;2023-02-14T08:33:07;45.08;;;21.02;;
18997;SDS011;9632;51.018;4.284;2023-02-14T08:35:32;53.67;;;21.70;;
18997;SDS011;9632;51.018;4.284;2023-02-14T08:37:58;49.60;;;22.27;;
18997;SDS011;9632;51.018;4.284;2023-02-14T08:40:24;52.10;;;23.27;;
18997;SDS011;9632;51.018;4.284;2023-02-14T08:42:50;47.40;;;22.13;;
18997;SDS011;9632;51.018;4.284;2023-02-14T08:45:16;45.78;;;22.00;;
18997;SDS011;9632;51.018;4.284;2023-02-14T08:47:41;50.70;;;23.83;;
18997;SDS011;9632;51.018;4.284;2023-02-14T08:50:08;52.08;;;24.23;;
18997;SDS011;9632;51.018;4.284;2023-02-14T08:52:39;47.58;;;23.05;;
18997;SDS011;9632;51.018;4.284;2023-02-14T08:55:05;50.90;;;24.48;;
18997;SDS011;9632;51.018;4.284;2023-02-14T08:57:31;47.17;;;22.08;;
18997;SDS011;9632;51.018;4.284;2023-02-14T08:59:57;47.28;;;23.67;;
18997;SDS011;9632;51.018;4.284;2023-02-14T09:02:22;51.45;;;23.90;;
18997;SDS011;9632;51.018;4.284;2023-02-14T09:04:48;48.25;;;23.88;;
18997;SDS011;9632;51.018;4.284;2023-02-14T09:07:14;56.35;;;23.73;;
18997;SDS011;9632;51.018;4.284;2023-02-14T09:09:40;52.05;;;24.65;;
18997;SDS011;9632;51.018;4.284;2023-02-14T09:12:06;57.05;;;25.00;;
18997;SDS011;9632;51.018;4.284;2023-02-14T09:14:33;53.65;;;24.50;;
18997;SDS011;9632;51.018;4.284;2023-02-14T09:17:00;55.40;;;24.70;;
18997;SDS011;9632;51.018;4.284;2023-02-14T09:19:29;55.95;;;26.10;;
18997;SDS011;9632;51.018;4.284;2023-02-14T09:21:56;61.63;;;26.42;;
18997;SDS011;9632;51.018;4.284;2023-02-14T09:24:22;52.90;;;26.25;;
18997;SDS011;9632;51.018;4.284;2023-02-14T09:26:48;55.25;;;24.80;;
18997;SDS011;9632;51.018;4.284;2023-02-14T09:29:14;51.78;;;25.83;;
18997;SDS011;9632;51.018;4.284;2023-02-14T09:31:40;52.47;;;24.73;;
18997;SDS011;9632;51.018;4.284;2023-02-14T09:34:06;50.35;;;24.02;;
18997;SDS011;9632;51.018;4.284;2023-02-14T09:36:31;49.42;;;24.13;;
18997;SDS011;9632;51.018;4.284;2023-02-14T09:38:57;55.63;;;24.30;;
18997;SDS011;9632;51.018;4.284;2023-02-14T09:44:04;50.00;;;23.38;;
18997;SDS011;9632;51.018;4.284;2023-02-14T09:46:47;55.40;;;25.73;;
18997;SDS011;9632;51.018;4.284;2023-02-14T09:49:18;47.10;;;22.65;;
18997;SDS011;9632;51.018;4.284;2023-02-14T09:51:54;52.92;;;24.08;;
18997;SDS011;9632;51.018;4.284;2023-02-14T09:54:20;49.97;;;23.75;;
18997;SDS011;9632;51.018;4.284;2023-02-14T09:59:42;46.78;;;22.95;;
18997;SDS011;9632;51.018;4.284;2023-02-14T10:05:11;48.63;;;24.38;;
18997;SDS011;9632;51.018;4.284;2023-02-14T10:10:27;54.33;;;25.55;;
18997;SDS011;9632;51.018;4.284;2023-02-14T10:15:49;50.85;;;24.35;;
18997;SDS011;9632;51.018;4.284;2023-02-14T10:19:03;51.50;;;24.98;;
18997;SDS011;9632;51.018;4.284;2023-02-14T10:21:37;48.85;;;23.30;;
18997;SDS011;9632;51.018;4.284;2023-02-14T10:24:23;49.00;;;23.75;;
18997;SDS011;9632;51.018;4.284;2023-02-14T10:27:11;47.95;;;23.27;;
18997;SDS011;9632;51.018;4.284;2023-02-14T10:29:52;52.92;;;23.63;;
18997;SDS011;9632;51.018;4.284;2023-02-14T10:32:19;48.05;;;23.50;;
18997;SDS011;9632;51.018;4.284;2023-02-14T10:34:51;47.03;;;23.10;;
18997;SDS011;9632;51.018;4.284;2023-02-14T10:40:00;43.72;;;23.13;;
18997;SDS011;9632;51.018;4.284;2023-02-14T10:45:03;46.20;;;23.00;;
18997;SDS011;9632;51.018;4.284;2023-02-14T10:50:31;48.67;;;24.48;;
18997;SDS011;9632;51.018;4.284;2023-02-14T10:56:20;48.22;;;22.70;;
18997;SDS011;9632;51.018;4.284;2023-02-14T10:58:49;47.33;;;23.48;;
18997;SDS011;9632;51.018;4.284;2023-02-14T11:01:19;54.22;;;23.42;;
18997;SDS011;9632;51.018;4.284;2023-02-14T11:03:56;43.80;;;22.08;;
18997;SDS011;9632;51.018;4.284;2023-02-14T11:06:28;41.40;;;21.83;;
18997;SDS011;9632;51.018;4.284;2023-02-14T11:08:54;45.92;;;23.08;;
18997;SDS011;9632;51.018;4.284;2023-02-14T11:13:51;44.50;;;23.17;;
18997;SDS011;9632;51.018;4.284;2023-02-14T11:16:38;47.30;;;22.70;;
18997;SDS011;9632;51.018;4.284;2023-02-14T11:21:39;44.70;;;23.40;;
18997;SDS011;9632;51.018;4.284;2023-02-14T11:26:53;47.13;;;24.17;;
18997;SDS011;9632;51.018;4.284;2023-02-14T11:32:24;44.13;;;23.27;;
18997;SDS011;9632;51.018;4.284;2023-02-14T11:40:01;49.38;;;23.55;;
18997;SDS011;9632;51.018;4.284;2023-02-14T11:43:16;66.13;;;29.98;;
18997;SDS011;9632;51.018;4.284;2023-02-14T11:45:32;46.00;;;24.20;;
18997;SDS011;9632;51.018;4.284;2023-02-14T11:50:55;48.17;;;24.38;;
18997;SDS011;9632;51.018;4.284;2023-02-14T11:53:24;48.13;;;24.08;;
18997;SDS011;9632;51.018;4.284;2023-02-14T11:55:53;48.20;;;24.15;;
18997;SDS011;9632;51.018;4.284;2023-02-14T12:01:03;51.10;;;25.38;;
18997;SDS011;9632;51.018;4.284;2023-02-14T12:03:32;47.00;;;23.70;;
18997;SDS011;9632;51.018;4.284;2023-02-14T12:06:08;50.42;;;25.13;;
18997;SDS011;9632;51.018;4.284;2023-02-14T12:08:34;50.95;;;25.30;;
18997;SDS011;9632;51.018;4.284;2023-02-14T12:13:30;52.20;;;26.35;;
18997;SDS011;9632;51.018;4.284;2023-02-14T12:15:57;50.55;;;25.33;;
18997;SDS011;9632;51.018;4.284;2023-02-14T12:32:23;50.60;;;25.08;;
18997;SDS011;9632;51.018;4.284;2023-02-14T12:35:02;41.90;;;21.73;;
18997;SDS011;9632;51.018;4.284;2023-02-14T12:40:35;49.63;;;23.65;;
18997;SDS011;9632;51.018;4.284;2023-02-14T12:43:38;48.67;;;24.48;;
18997;SDS011;9632;51.018;4.284;2023-02-14T12:54:07;48.65;;;25.38;;
18997;SDS011;9632;51.018;4.284;2023-02-14T12:59:50;46.65;;;23.30;;
18997;SDS011;9632;51.018;4.284;2023-02-14T13:10:49;43.90;;;21.10;;
18997;SDS011;9632;51.018;4.284;2023-02-14T13:21:52;48.42;;;22.95;;
18997;SDS011;9632;51.018;4.284;2023-02-14T13:24:24;48.00;;;23.73;;
18997;SDS011;9632;51.018;4.284;2023-02-14T13:26:54;46.08;;;22.25;;
18997;SDS011;9632;51.018;4.284;2023-02-14T13:29:24;50.00;;;25.30;;
18997;SDS011;9632;51.018;4.284;2023-02-14T13:31:57;45.30;;;23.15;;
18997;SDS011;9632;51.018;4.284;2023-02-14T13:34:30;49.03;;;23.20;;
18997;SDS011;9632;51.018;4.284;2023-02-14T13:36:59;42.53;;;21.92;;
18997;SDS011;9632;51.018;4.284;2023-02-14T13:39:34;46.22;;;23.20;;
18997;SDS011;9632;51.018;4.284;2023-02-14T13:42:03;50.22;;;24.75;;
18997;SDS011;9632;51.018;4.284;2023-02-14T13:47:21;59.28;;;27.65;;
18997;SDS011;9632;51.018;4.284;2023-02-14T13:49:58;50.88;;;24.08;;
18997;SDS011;9632;51.018;4.284;2023-02-14T13:52:45;52.88;;;25.02;;
18997;SDS011;9632;51.018;4.284;2023-02-14T13:55:22;47.88;;;22.77;;
18997;SDS011;9632;51.018;4.284;2023-02-14T13:57:59;45.00;;;22.92;;
18997;SDS011;9632;51.018;4.284;2023-02-14T14:00:37;51.15;;;24.38;;
18997;SDS011;9632;51.018;4.284;2023-02-14T14:03:05;46.63;;;21.98;;
18997;SDS011;9632;51.018;4.284;2023-02-14T14:21:37;45.85;;;23.20;;
18997;SDS011;9632;51.018;4.284;2023-02-14T14:29:31;52.88;;;22.13;;
18997;SDS011;9632;51.018;4.284;2023-02-14T14:34:50;54.13;;;23.77;;
18997;SDS011;9632;51.018;4.284;2023-02-14T14:37:22;50.65;;;22.90;;
18997;SDS011;9632;51.018;4.284;2023-02-14T14:43:33;41.92;;;20.13;;
18997;SDS011;9632;51.018;4.284;2023-02-14T14:49:26;41.75;;;19.58;;
18997;SDS011;9632;51.018;4.284;2023-02-14T14:51:52;41.60;;;19.88;;
18997;SDS011;9632;51.018;4.284;2023-02-14T14:54:19;44.83;;;20.60;;
18997;SDS011;9632;51.018;4.284;2023-02-14T14:56:56;47.70;;;21.88;;
18997;SDS011;9632;51.018;4.284;2023-02-14T14:59:44;44.03;;;19.88;;
18997;SDS011;9632;51.018;4.284;2023-02-14T15:02:31;42.83;;;20.58;;
18997;SDS011;9632;51.018;4.284;2023-02-14T15:11:45;45.28;;;19.02;;
18997;SDS011;9632;51.018;4.284;2023-02-14T15:22:43;42.08;;;19.15;;
18997;SDS011;9632;51.018;4.284;2023-02-14T15:27:44;42.97;;;19.67;;
18997;SDS011;9632;51.018;4.284;2023-02-14T15:30:30;41.75;;;18.95;;
18997;SDS011;9632;51.018;4.284;2023-02-14T15:36:01;49.25;;;20.20;;
18997;SDS011;9632;51.018;4.284;2023-02-14T15:38:29;47.88;;;20.13;;
18997;SDS011;9632;51.018;4.284;2023-02-14T15:40:59;39.58;;;18.67;;
18997;SDS011;9632;51.018;4.284;2023-02-14T15:47:00;43.28;;;19.63;;
18997;SDS011;9632;51.018;4.284;2023-02-14T20:40:16;44.58;;;19.48;;
18997;SDS011;9632;51.018;4.284;2023-02-14T20:46:11;40.67;;;17.85;;
18997;SDS011;9632;51.018;4.284;2023-02-14T20:48:37;38.55;;;16.63;;
18997;SDS011;9632;51.018;4.284;2023-02-14T20:51:12;31.88;;;15.27;;
18997;SDS011;9632;51.018;4.284;2023-02-14T21:42:08;34.95;;;16.83;;
18997;SDS011;9632;51.018;4.284;2023-02-14T21:44:36;39.40;;;17.25;;
18997;SDS011;9632;51.018;4.284;2023-02-14T21:47:25;39.58;;;18.23;;
18997;SDS011;9632;51.018;4.284;2023-02-14T21:53:14;41.35;;;19.20;;
18997;SDS011;9632;51.018;4.284;2023-02-14T21:59:01;42.58;;;19.23;;
18997;SDS011;9632;51.018;4.284;2023-02-14T22:17:54;39.40;;;17.77;;
18997;SDS011;9632;51.018;4.284;2023-02-14T22:20:19;40.92;;;17.98;;
18997;SDS011;9632;51.018;4.284;2023-02-14T22:22:58;38.65;;;18.70;;
18997;SDS011;9632;51.018;4.284;2023-02-14T22:31:40;39.85;;;17.67;;
18997;SDS011;9632;51.018;4.284;2023-02-14T22:37:29;42.08;;;19.55;;
18997;SDS011;9632;51.018;4.284;2023-02-14T22:39:54;38.45;;;18.05;;
18997;SDS011;9632;51.018;4.284;2023-02-14T22:45:32;44.08;;;19.00;;
18997;SDS011;9632;51.018;4.284;2023-02-14T22:47:58;43.20;;;18.67;;
18997;SDS011;9632;51.018;4.284;2023-02-14T22:50:25;41.45;;;19.65;;
18997;SDS011;9632;51.018;4.284;2023-02-14T23:02:38;48.10;;;19.33;;
18997;SDS011;9632;51.018;4.284;2023-02-14T23:05:04;45.50;;;19.35;;
18997;SDS011;9632;51.018;4.284;2023-02-14T23:07:29;42.30;;;19.13;;
18997;SDS011;9632;51.018;4.284;2023-02-14T23:09:55;46.42;;;20.13;;
18997;SDS011;9632;51.018;4.284;2023-02-14T23:12:21;43.33;;;20.20;;
18997;SDS011;9632;51.018;4.284;2023-02-14T23:15:05;42.00;;;20.00;;
18997;SDS011;9632;51.018;4.284;2023-02-14T23:17:50;48.67;;;21.75;;
18997;SDS011;9632;51.018;4.284;2023-02-14T23:20:34;47.20;;;21.10;;
18997;SDS011;9632;51.018;4.284;2023-02-14T23:23:18;45.60;;;20.50;;
18997;SDS011;9632;51.018;4.284;2023-02-14T23:25:44;45.80;;;20.02;;
18997;SDS011;9632;51.018;4.284;2023-02-14T23:28:10;37.63;;;17.83;;
18997;SDS011;9632;51.018;4.284;2023-02-14T23:30:35;37.65;;;17.17;;
18997;SDS011;9632;51.018;4.284;2023-02-14T23:33:01;41.00;;;18.52;;
18997;SDS011;9632;51.018;4.284;2023-02-14T23:38:07;41.92;;;18.40;;
18997;SDS011;9632;51.018;4.284;2023-02-14T23:43:23;42.53;;;18.67;;
18997;SDS011;9632;51.018;4.284;2023-02-14T23:45:49;43.15;;;18.90;;
18997;SDS011;9632;51.018;4.284;2023-02-14T23:48:14;42.33;;;18.30;;
18997;SDS011;9632;51.018;4.284;2023-02-14T23:50:42;40.20;;;18.48;;
18997;SDS011;9632;51.018;4.284;2023-02-14T23:53:07;43.83;;;18.50;;
18997;SDS011;9632;51.018;4.284;2023-02-14T23:55:33;42.10;;;18.48;;
18997;SDS011;9632;51.018;4.284;2023-02-14T23:57:59;47.45;;;20.27;;
